sensor_id;sensor_type;location;lat;lon;timestamp;P1;durP1;ratioP1;P2;durP2;ratioP2
24030;SDS011;12240;51.142;22.486;2023-07-13T00:01:14;6.85;;;3.28;;
24030;SDS011;12240;51.142;22.486;2023-07-13T00:03:44;7.18;;;3.00;;
24030;SDS011;12240;51.142;22.486;2023-07-13T00:06:13;11.30;;;3.85;;
24030;SDS011;12240;51.142;22.486;2023-07-13T00:08:41;8.90;;;4.00;;
24030;SDS011;12240;51.142;22.486;2023-07-13T00:11:09;8.38;;;4.07;;
24030;SDS011;12240;51.142;22.486;2023-07-13T00:13:38;6.35;;;3.42;;
24030;SDS011;12240;51.142;22.486;2023-07-13T00:16:07;7.47;;;3.60;;
24030;SDS011;12240;51.142;22.486;2023-07-13T00:18:37;7.70;;;3.38;;
24030;SDS011;12240;51.142;22.486;2023-07-13T00:21:05;10.75;;;4.20;;
24030;SDS011;12240;51.142;22.486;2023-07-13T00:23:34;13.27;;;3.42;;
24030;SDS011;12240;51.142;22.486;2023-07-13T00:26:05;7.57;;;3.50;;
24030;SDS011;12240;51.142;22.486;2023-07-13T00:28:38;8.80;;;3.63;;
24030;SDS011;12240;51.142;22.486;2023-07-13T00:31:07;12.27;;;4.20;;
24030;SDS011;12240;51.142;22.486;2023-07-13T00:33:38;6.00;;;3.60;;
24030;SDS011;12240;51.142;22.486;2023-07-13T00:36:09;7.93;;;3.65;;
24030;SDS011;12240;51.142;22.486;2023-07-13T00:38:38;11.38;;;3.88;;
24030;SDS011;12240;51.142;22.486;2023-07-13T00:41:08;11.20;;;3.70;;
24030;SDS011;12240;51.142;22.486;2023-07-13T00:43:37;13.10;;;3.97;;
24030;SDS011;12240;51.142;22.486;2023-07-13T00:48:53;12.80;;;4.65;;
24030;SDS011;12240;51.142;22.486;2023-07-13T00:51:28;16.35;;;4.00;;
24030;SDS011;12240;51.142;22.486;2023-07-13T00:54:05;16.02;;;4.68;;
24030;SDS011;12240;51.142;22.486;2023-07-13T00:56:39;14.00;;;4.65;;
24030;SDS011;12240;51.142;22.486;2023-07-13T00:59:10;10.52;;;4.10;;
24030;SDS011;12240;51.142;22.486;2023-07-13T01:01:42;12.40;;;4.38;;
24030;SDS011;12240;51.142;22.486;2023-07-13T01:04:10;18.33;;;5.25;;
24030;SDS011;12240;51.142;22.486;2023-07-13T01:06:41;10.27;;;4.70;;
24030;SDS011;12240;51.142;22.486;2023-07-13T01:09:11;11.82;;;4.57;;
24030;SDS011;12240;51.142;22.486;2023-07-13T01:11:40;7.88;;;3.88;;
24030;SDS011;12240;51.142;22.486;2023-07-13T01:14:09;27.83;;;4.63;;
24030;SDS011;12240;51.142;22.486;2023-07-13T01:16:38;23.60;;;6.93;;
24030;SDS011;12240;51.142;22.486;2023-07-13T01:22:14;17.45;;;5.25;;
24030;SDS011;12240;51.142;22.486;2023-07-13T01:24:46;15.75;;;5.00;;
24030;SDS011;12240;51.142;22.486;2023-07-13T01:27:19;21.55;;;5.18;;
24030;SDS011;12240;51.142;22.486;2023-07-13T01:29:52;14.50;;;4.93;;
24030;SDS011;12240;51.142;22.486;2023-07-13T01:32:29;23.40;;;4.18;;
24030;SDS011;12240;51.142;22.486;2023-07-13T01:35:00;14.63;;;4.13;;
24030;SDS011;12240;51.142;22.486;2023-07-13T01:37:28;13.65;;;5.13;;
24030;SDS011;12240;51.142;22.486;2023-07-13T01:40:00;10.98;;;5.15;;
24030;SDS011;12240;51.142;22.486;2023-07-13T01:42:30;13.10;;;5.05;;
24030;SDS011;12240;51.142;22.486;2023-07-13T01:44:58;13.32;;;4.32;;
24030;SDS011;12240;51.142;22.486;2023-07-13T01:47:26;12.50;;;5.15;;
24030;SDS011;12240;51.142;22.486;2023-07-13T01:49:56;14.48;;;4.50;;
24030;SDS011;12240;51.142;22.486;2023-07-13T01:52:25;18.85;;;4.40;;
24030;SDS011;12240;51.142;22.486;2023-07-13T01:54:53;17.30;;;4.97;;
24030;SDS011;12240;51.142;22.486;2023-07-13T01:57:21;15.55;;;5.25;;
24030;SDS011;12240;51.142;22.486;2023-07-13T01:59:49;13.73;;;5.30;;
24030;SDS011;12240;51.142;22.486;2023-07-13T02:02:17;13.20;;;5.13;;
24030;SDS011;12240;51.142;22.486;2023-07-13T02:04:46;16.05;;;5.10;;
24030;SDS011;12240;51.142;22.486;2023-07-13T02:07:14;13.23;;;5.10;;
24030;SDS011;12240;51.142;22.486;2023-07-13T02:09:43;8.38;;;4.85;;
24030;SDS011;12240;51.142;22.486;2023-07-13T02:12:12;13.07;;;4.97;;
24030;SDS011;12240;51.142;22.486;2023-07-13T02:14:40;17.38;;;5.22;;
24030;SDS011;12240;51.142;22.486;2023-07-13T02:17:09;14.38;;;4.60;;
24030;SDS011;12240;51.142;22.486;2023-07-13T02:19:38;18.95;;;5.35;;
24030;SDS011;12240;51.142;22.486;2023-07-13T02:22:07;17.00;;;4.72;;
24030;SDS011;12240;51.142;22.486;2023-07-13T02:24:35;12.95;;;4.75;;
24030;SDS011;12240;51.142;22.486;2023-07-13T02:27:05;16.75;;;4.93;;
24030;SDS011;12240;51.142;22.486;2023-07-13T02:29:33;12.65;;;4.50;;
24030;SDS011;12240;51.142;22.486;2023-07-13T02:32:01;11.88;;;4.50;;
24030;SDS011;12240;51.142;22.486;2023-07-13T02:34:30;14.10;;;4.88;;
24030;SDS011;12240;51.142;22.486;2023-07-13T02:37:00;14.18;;;5.60;;
24030;SDS011;12240;51.142;22.486;2023-07-13T02:39:28;18.85;;;4.93;;
24030;SDS011;12240;51.142;22.486;2023-07-13T02:41:56;16.85;;;5.28;;
24030;SDS011;12240;51.142;22.486;2023-07-13T02:44:24;19.15;;;4.93;;
24030;SDS011;12240;51.142;22.486;2023-07-13T02:46:53;31.02;;;5.20;;
24030;SDS011;12240;51.142;22.486;2023-07-13T02:49:21;23.00;;;4.90;;
24030;SDS011;12240;51.142;22.486;2023-07-13T02:51:51;11.40;;;4.88;;
24030;SDS011;12240;51.142;22.486;2023-07-13T02:54:19;22.73;;;5.18;;
24030;SDS011;12240;51.142;22.486;2023-07-13T02:56:47;37.45;;;4.70;;
24030;SDS011;12240;51.142;22.486;2023-07-13T02:59:15;25.30;;;4.65;;
24030;SDS011;12240;51.142;22.486;2023-07-13T03:01:43;19.30;;;4.53;;
24030;SDS011;12240;51.142;22.486;2023-07-13T03:04:11;25.20;;;4.78;;
24030;SDS011;12240;51.142;22.486;2023-07-13T03:06:40;35.40;;;5.60;;
24030;SDS011;12240;51.142;22.486;2023-07-13T03:09:09;21.70;;;4.88;;
24030;SDS011;12240;51.142;22.486;2023-07-13T03:11:41;16.35;;;4.68;;
24030;SDS011;12240;51.142;22.486;2023-07-13T03:14:21;23.27;;;5.05;;
24030;SDS011;12240;51.142;22.486;2023-07-13T03:16:50;24.92;;;4.65;;
24030;SDS011;12240;51.142;22.486;2023-07-13T03:21:51;25.13;;;5.07;;
24030;SDS011;12240;51.142;22.486;2023-07-13T03:24:19;18.55;;;5.38;;
24030;SDS011;12240;51.142;22.486;2023-07-13T03:26:47;20.20;;;4.53;;
24030;SDS011;12240;51.142;22.486;2023-07-13T03:29:15;19.15;;;4.97;;
24030;SDS011;12240;51.142;22.486;2023-07-13T03:31:44;22.23;;;5.68;;
24030;SDS011;12240;51.142;22.486;2023-07-13T03:34:13;16.48;;;5.30;;
24030;SDS011;12240;51.142;22.486;2023-07-13T03:36:42;21.25;;;5.80;;
24030;SDS011;12240;51.142;22.486;2023-07-13T03:39:12;23.90;;;5.45;;
24030;SDS011;12240;51.142;22.486;2023-07-13T03:41:49;24.90;;;5.90;;
24030;SDS011;12240;51.142;22.486;2023-07-13T03:44:17;19.70;;;5.00;;
24030;SDS011;12240;51.142;22.486;2023-07-13T03:46:51;22.73;;;4.65;;
24030;SDS011;12240;51.142;22.486;2023-07-13T03:49:20;11.82;;;4.63;;
24030;SDS011;12240;51.142;22.486;2023-07-13T03:51:48;14.70;;;6.13;;
24030;SDS011;12240;51.142;22.486;2023-07-13T03:54:20;16.35;;;4.90;;
24030;SDS011;12240;51.142;22.486;2023-07-13T03:56:48;16.85;;;4.50;;
24030;SDS011;12240;51.142;22.486;2023-07-13T03:59:17;13.00;;;4.82;;
24030;SDS011;12240;51.142;22.486;2023-07-13T04:01:46;12.50;;;5.25;;
24030;SDS011;12240;51.142;22.486;2023-07-13T04:04:14;11.68;;;4.82;;
24030;SDS011;12240;51.142;22.486;2023-07-13T04:06:43;9.75;;;4.35;;
24030;SDS011;12240;51.142;22.486;2023-07-13T04:09:11;15.80;;;5.32;;
24030;SDS011;12240;51.142;22.486;2023-07-13T04:11:40;27.65;;;5.07;;
24030;SDS011;12240;51.142;22.486;2023-07-13T04:14:08;23.25;;;5.93;;
24030;SDS011;12240;51.142;22.486;2023-07-13T04:16:36;30.42;;;5.72;;
24030;SDS011;12240;51.142;22.486;2023-07-13T04:19:04;22.17;;;5.68;;
24030;SDS011;12240;51.142;22.486;2023-07-13T04:21:32;24.77;;;5.53;;
24030;SDS011;12240;51.142;22.486;2023-07-13T04:24:01;26.83;;;5.32;;
24030;SDS011;12240;51.142;22.486;2023-07-13T04:26:30;21.10;;;5.93;;
24030;SDS011;12240;51.142;22.486;2023-07-13T04:28:58;19.35;;;5.15;;
24030;SDS011;12240;51.142;22.486;2023-07-13T04:31:26;17.98;;;5.32;;
24030;SDS011;12240;51.142;22.486;2023-07-13T04:33:55;30.55;;;5.20;;
24030;SDS011;12240;51.142;22.486;2023-07-13T04:36:24;28.08;;;5.07;;
24030;SDS011;12240;51.142;22.486;2023-07-13T04:38:55;32.33;;;5.97;;
24030;SDS011;12240;51.142;22.486;2023-07-13T04:41:23;21.88;;;5.22;;
24030;SDS011;12240;51.142;22.486;2023-07-13T04:43:51;19.92;;;5.50;;
24030;SDS011;12240;51.142;22.486;2023-07-13T04:46:23;25.27;;;5.38;;
24030;SDS011;12240;51.142;22.486;2023-07-13T04:48:51;17.23;;;5.70;;
24030;SDS011;12240;51.142;22.486;2023-07-13T04:51:20;16.45;;;5.32;;
24030;SDS011;12240;51.142;22.486;2023-07-13T04:53:48;24.58;;;5.45;;
24030;SDS011;12240;51.142;22.486;2023-07-13T04:56:22;25.30;;;5.75;;
24030;SDS011;12240;51.142;22.486;2023-07-13T04:58:50;26.45;;;5.43;;
24030;SDS011;12240;51.142;22.486;2023-07-13T05:01:18;39.08;;;6.82;;
24030;SDS011;12240;51.142;22.486;2023-07-13T05:03:47;31.38;;;5.15;;
24030;SDS011;12240;51.142;22.486;2023-07-13T05:06:15;26.75;;;5.55;;
24030;SDS011;12240;51.142;22.486;2023-07-13T05:08:43;22.75;;;5.53;;
24030;SDS011;12240;51.142;22.486;2023-07-13T05:11:11;21.33;;;5.70;;
24030;SDS011;12240;51.142;22.486;2023-07-13T05:13:41;29.30;;;6.43;;
24030;SDS011;12240;51.142;22.486;2023-07-13T05:16:09;26.65;;;6.50;;
24030;SDS011;12240;51.142;22.486;2023-07-13T05:18:38;27.58;;;5.88;;
24030;SDS011;12240;51.142;22.486;2023-07-13T05:21:09;22.13;;;6.25;;
24030;SDS011;12240;51.142;22.486;2023-07-13T05:23:39;13.18;;;4.97;;
24030;SDS011;12240;51.142;22.486;2023-07-13T05:26:09;16.75;;;5.78;;
24030;SDS011;12240;51.142;22.486;2023-07-13T05:28:37;23.35;;;6.13;;
24030;SDS011;12240;51.142;22.486;2023-07-13T05:31:09;18.45;;;6.15;;
24030;SDS011;12240;51.142;22.486;2023-07-13T05:33:38;23.08;;;6.22;;
24030;SDS011;12240;51.142;22.486;2023-07-13T05:36:07;21.17;;;6.38;;
24030;SDS011;12240;51.142;22.486;2023-07-13T05:38:35;23.42;;;6.80;;
24030;SDS011;12240;51.142;22.486;2023-07-13T05:41:03;23.67;;;6.82;;
24030;SDS011;12240;51.142;22.486;2023-07-13T05:43:32;19.10;;;6.85;;
24030;SDS011;12240;51.142;22.486;2023-07-13T05:46:01;28.67;;;7.38;;
24030;SDS011;12240;51.142;22.486;2023-07-13T05:48:29;18.63;;;7.28;;
24030;SDS011;12240;51.142;22.486;2023-07-13T05:50:58;17.50;;;6.38;;
24030;SDS011;12240;51.142;22.486;2023-07-13T05:53:26;17.55;;;7.03;;
24030;SDS011;12240;51.142;22.486;2023-07-13T05:55:54;29.77;;;7.03;;
24030;SDS011;12240;51.142;22.486;2023-07-13T05:58:23;16.95;;;5.68;;
24030;SDS011;12240;51.142;22.486;2023-07-13T06:00:58;13.23;;;6.22;;
24030;SDS011;12240;51.142;22.486;2023-07-13T06:03:33;17.83;;;5.93;;
24030;SDS011;12240;51.142;22.486;2023-07-13T06:06:01;20.08;;;6.30;;
24030;SDS011;12240;51.142;22.486;2023-07-13T06:08:30;17.40;;;6.53;;
24030;SDS011;12240;51.142;22.486;2023-07-13T06:11:02;23.83;;;7.47;;
24030;SDS011;12240;51.142;22.486;2023-07-13T06:13:32;20.42;;;8.52;;
24030;SDS011;12240;51.142;22.486;2023-07-13T06:16:01;15.90;;;7.40;;
24030;SDS011;12240;51.142;22.486;2023-07-13T06:18:32;14.20;;;7.47;;
24030;SDS011;12240;51.142;22.486;2023-07-13T06:21:05;19.27;;;8.02;;
24030;SDS011;12240;51.142;22.486;2023-07-13T06:23:41;18.33;;;8.52;;
24030;SDS011;12240;51.142;22.486;2023-07-13T06:26:10;12.60;;;8.05;;
24030;SDS011;12240;51.142;22.486;2023-07-13T06:28:40;19.10;;;8.73;;
24030;SDS011;12240;51.142;22.486;2023-07-13T06:31:09;13.05;;;8.20;;
24030;SDS011;12240;51.142;22.486;2023-07-13T06:33:39;15.25;;;8.20;;
24030;SDS011;12240;51.142;22.486;2023-07-13T06:36:08;13.07;;;8.07;;
24030;SDS011;12240;51.142;22.486;2023-07-13T06:38:37;23.83;;;9.25;;
24030;SDS011;12240;51.142;22.486;2023-07-13T06:41:06;15.00;;;8.43;;
24030;SDS011;12240;51.142;22.486;2023-07-13T06:43:36;19.40;;;8.35;;
24030;SDS011;12240;51.142;22.486;2023-07-13T06:46:04;15.68;;;8.75;;
24030;SDS011;12240;51.142;22.486;2023-07-13T06:48:33;13.32;;;8.00;;
24030;SDS011;12240;51.142;22.486;2023-07-13T06:51:01;17.55;;;9.20;;
24030;SDS011;12240;51.142;22.486;2023-07-13T06:53:30;22.48;;;9.13;;
24030;SDS011;12240;51.142;22.486;2023-07-13T06:55:58;17.90;;;8.85;;
24030;SDS011;12240;51.142;22.486;2023-07-13T06:58:26;17.13;;;8.82;;
24030;SDS011;12240;51.142;22.486;2023-07-13T07:00:54;16.42;;;8.82;;
24030;SDS011;12240;51.142;22.486;2023-07-13T07:03:22;15.45;;;9.50;;
24030;SDS011;12240;51.142;22.486;2023-07-13T07:05:51;15.85;;;9.30;;
24030;SDS011;12240;51.142;22.486;2023-07-13T07:08:19;15.68;;;8.88;;
24030;SDS011;12240;51.142;22.486;2023-07-13T07:10:48;15.00;;;8.65;;
24030;SDS011;12240;51.142;22.486;2023-07-13T07:13:21;14.57;;;8.80;;
24030;SDS011;12240;51.142;22.486;2023-07-13T07:15:50;14.32;;;9.48;;
24030;SDS011;12240;51.142;22.486;2023-07-13T07:18:19;15.05;;;9.13;;
24030;SDS011;12240;51.142;22.486;2023-07-13T07:20:48;15.68;;;9.07;;
24030;SDS011;12240;51.142;22.486;2023-07-13T07:23:18;18.20;;;9.50;;
24030;SDS011;12240;51.142;22.486;2023-07-13T07:25:46;17.95;;;9.30;;
24030;SDS011;12240;51.142;22.486;2023-07-13T07:28:15;17.83;;;9.05;;
24030;SDS011;12240;51.142;22.486;2023-07-13T07:30:52;15.80;;;9.05;;
24030;SDS011;12240;51.142;22.486;2023-07-13T07:33:28;15.00;;;8.85;;
24030;SDS011;12240;51.142;22.486;2023-07-13T07:35:56;15.20;;;8.82;;
24030;SDS011;12240;51.142;22.486;2023-07-13T07:38:27;17.02;;;9.20;;
24030;SDS011;12240;51.142;22.486;2023-07-13T07:40:56;13.45;;;9.13;;
24030;SDS011;12240;51.142;22.486;2023-07-13T07:43:27;12.80;;;8.68;;
24030;SDS011;12240;51.142;22.486;2023-07-13T07:45:55;15.07;;;8.85;;
24030;SDS011;12240;51.142;22.486;2023-07-13T07:48:24;14.90;;;9.30;;
24030;SDS011;12240;51.142;22.486;2023-07-13T07:50:53;13.90;;;8.57;;
24030;SDS011;12240;51.142;22.486;2023-07-13T07:53:22;16.67;;;8.82;;
24030;SDS011;12240;51.142;22.486;2023-07-13T07:55:50;15.02;;;8.25;;
24030;SDS011;12240;51.142;22.486;2023-07-13T07:58:21;15.10;;;9.25;;
24030;SDS011;12240;51.142;22.486;2023-07-13T08:00:52;15.55;;;9.32;;
24030;SDS011;12240;51.142;22.486;2023-07-13T08:03:24;17.85;;;8.77;;
24030;SDS011;12240;51.142;22.486;2023-07-13T08:05:55;19.55;;;9.77;;
24030;SDS011;12240;51.142;22.486;2023-07-13T08:08:43;15.95;;;9.93;;
24030;SDS011;12240;51.142;22.486;2023-07-13T08:11:11;14.90;;;9.05;;
24030;SDS011;12240;51.142;22.486;2023-07-13T08:13:43;16.08;;;10.07;;
24030;SDS011;12240;51.142;22.486;2023-07-13T08:16:11;16.10;;;10.15;;
24030;SDS011;12240;51.142;22.486;2023-07-13T08:18:40;24.50;;;9.07;;
24030;SDS011;12240;51.142;22.486;2023-07-13T08:21:08;17.33;;;9.30;;
24030;SDS011;12240;51.142;22.486;2023-07-13T08:23:37;16.80;;;10.30;;
24030;SDS011;12240;51.142;22.486;2023-07-13T08:26:06;18.27;;;9.40;;
24030;SDS011;12240;51.142;22.486;2023-07-13T08:28:35;15.10;;;10.25;;
24030;SDS011;12240;51.142;22.486;2023-07-13T08:31:06;16.02;;;10.15;;
24030;SDS011;12240;51.142;22.486;2023-07-13T08:33:35;16.17;;;9.65;;
24030;SDS011;12240;51.142;22.486;2023-07-13T08:36:05;15.27;;;9.52;;
24030;SDS011;12240;51.142;22.486;2023-07-13T08:38:33;19.60;;;9.55;;
24030;SDS011;12240;51.142;22.486;2023-07-13T08:41:04;13.38;;;9.07;;
24030;SDS011;12240;51.142;22.486;2023-07-13T08:43:41;41.47;;;22.67;;
24030;SDS011;12240;51.142;22.486;2023-07-13T08:48:59;25.48;;;13.18;;
24030;SDS011;12240;51.142;22.486;2023-07-13T08:51:45;26.92;;;14.25;;
24030;SDS011;12240;51.142;22.486;2023-07-13T08:54:52;19.55;;;11.77;;
24030;SDS011;12240;51.142;22.486;2023-07-13T08:57:24;20.67;;;11.52;;
24030;SDS011;12240;51.142;22.486;2023-07-13T09:00:01;26.65;;;14.05;;
24030;SDS011;12240;51.142;22.486;2023-07-13T09:05:28;17.40;;;9.20;;
24030;SDS011;12240;51.142;22.486;2023-07-13T09:14:41;18.05;;;10.25;;
24030;SDS011;12240;51.142;22.486;2023-07-13T09:17:17;13.45;;;7.95;;
24030;SDS011;12240;51.142;22.486;2023-07-13T09:20:00;15.98;;;8.70;;
24030;SDS011;12240;51.142;22.486;2023-07-13T09:22:33;21.55;;;11.60;;
24030;SDS011;12240;51.142;22.486;2023-07-13T09:25:06;25.08;;;11.63;;
24030;SDS011;12240;51.142;22.486;2023-07-13T09:28:23;12.20;;;6.90;;
24030;SDS011;12240;51.142;22.486;2023-07-13T09:33:33;8.80;;;5.18;;
24030;SDS011;12240;51.142;22.486;2023-07-13T09:36:05;7.97;;;5.22;;
24030;SDS011;12240;51.142;22.486;2023-07-13T09:47:27;12.38;;;5.05;;
24030;SDS011;12240;51.142;22.486;2023-07-13T09:50:00;7.65;;;5.20;;
24030;SDS011;12240;51.142;22.486;2023-07-13T09:52:43;8.90;;;5.18;;
24030;SDS011;12240;51.142;22.486;2023-07-13T09:58:09;8.15;;;5.28;;
24030;SDS011;12240;51.142;22.486;2023-07-13T10:01:01;7.63;;;5.30;;
24030;SDS011;12240;51.142;22.486;2023-07-13T10:03:35;7.95;;;5.05;;
24030;SDS011;12240;51.142;22.486;2023-07-13T10:06:18;12.30;;;5.70;;
24030;SDS011;12240;51.142;22.486;2023-07-13T10:08:55;8.68;;;5.38;;
24030;SDS011;12240;51.142;22.486;2023-07-13T10:11:29;10.23;;;4.80;;
24030;SDS011;12240;51.142;22.486;2023-07-13T10:14:08;9.43;;;4.70;;
24030;SDS011;12240;51.142;22.486;2023-07-13T10:16:41;7.78;;;4.57;;
24030;SDS011;12240;51.142;22.486;2023-07-13T10:19:17;9.43;;;4.15;;
24030;SDS011;12240;51.142;22.486;2023-07-13T10:27:18;8.40;;;4.78;;
24030;SDS011;12240;51.142;22.486;2023-07-13T10:30:14;8.88;;;4.72;;
24030;SDS011;12240;51.142;22.486;2023-07-13T10:33:01;8.73;;;4.93;;
24030;SDS011;12240;51.142;22.486;2023-07-13T10:35:33;6.95;;;4.63;;
24030;SDS011;12240;51.142;22.486;2023-07-13T10:38:06;6.75;;;4.78;;
24030;SDS011;12240;51.142;22.486;2023-07-13T10:43:22;13.02;;;4.75;;
24030;SDS011;12240;51.142;22.486;2023-07-13T10:45:58;8.85;;;4.57;;
24030;SDS011;12240;51.142;22.486;2023-07-13T10:48:28;6.50;;;4.27;;
24030;SDS011;12240;51.142;22.486;2023-07-13T10:51:00;7.57;;;5.10;;
24030;SDS011;12240;51.142;22.486;2023-07-13T10:53:33;8.35;;;4.97;;
24030;SDS011;12240;51.142;22.486;2023-07-13T10:56:04;9.38;;;4.75;;
24030;SDS011;12240;51.142;22.486;2023-07-13T10:59:09;6.55;;;4.82;;
24030;SDS011;12240;51.142;22.486;2023-07-13T11:04:18;8.50;;;4.95;;
24030;SDS011;12240;51.142;22.486;2023-07-13T11:06:48;7.40;;;4.97;;
24030;SDS011;12240;51.142;22.486;2023-07-13T11:12:08;7.13;;;4.47;;
24030;SDS011;12240;51.142;22.486;2023-07-13T11:17:36;8.02;;;4.90;;
24030;SDS011;12240;51.142;22.486;2023-07-13T11:22:49;9.80;;;5.93;;
24030;SDS011;12240;51.142;22.486;2023-07-13T11:25:39;8.15;;;5.20;;
24030;SDS011;12240;51.142;22.486;2023-07-13T11:30:48;13.23;;;5.50;;
24030;SDS011;12240;51.142;22.486;2023-07-13T11:33:51;8.23;;;5.00;;
24030;SDS011;12240;51.142;22.486;2023-07-13T11:36:23;7.82;;;4.90;;
24030;SDS011;12240;51.142;22.486;2023-07-13T11:39:16;7.30;;;4.97;;
24030;SDS011;12240;51.142;22.486;2023-07-13T11:42:15;8.05;;;4.90;;
24030;SDS011;12240;51.142;22.486;2023-07-13T11:44:47;13.57;;;5.25;;
24030;SDS011;12240;51.142;22.486;2023-07-13T11:47:39;8.15;;;5.00;;
24030;SDS011;12240;51.142;22.486;2023-07-13T11:50:17;11.18;;;5.28;;
24030;SDS011;12240;51.142;22.486;2023-07-13T11:52:52;9.05;;;5.00;;
24030;SDS011;12240;51.142;22.486;2023-07-13T11:55:23;7.90;;;4.88;;
24030;SDS011;12240;51.142;22.486;2023-07-13T11:57:59;7.43;;;5.00;;
24030;SDS011;12240;51.142;22.486;2023-07-13T12:00:31;11.45;;;4.95;;
24030;SDS011;12240;51.142;22.486;2023-07-13T12:03:01;9.52;;;4.93;;
24030;SDS011;12240;51.142;22.486;2023-07-13T12:08:00;8.15;;;5.00;;
24030;SDS011;12240;51.142;22.486;2023-07-13T12:10:55;7.88;;;4.97;;
24030;SDS011;12240;51.142;22.486;2023-07-13T12:13:36;8.75;;;4.72;;
24030;SDS011;12240;51.142;22.486;2023-07-13T12:16:14;9.05;;;4.78;;
24030;SDS011;12240;51.142;22.486;2023-07-13T12:18:57;7.40;;;4.80;;
24030;SDS011;12240;51.142;22.486;2023-07-13T12:24:11;8.93;;;4.93;;
24030;SDS011;12240;51.142;22.486;2023-07-13T12:26:43;6.40;;;4.75;;
24030;SDS011;12240;51.142;22.486;2023-07-13T12:29:15;7.88;;;4.90;;
24030;SDS011;12240;51.142;22.486;2023-07-13T12:31:45;8.88;;;4.53;;
24030;SDS011;12240;51.142;22.486;2023-07-13T12:34:20;8.35;;;4.40;;
24030;SDS011;12240;51.142;22.486;2023-07-13T12:36:55;7.57;;;4.80;;
24030;SDS011;12240;51.142;22.486;2023-07-13T12:44:54;8.93;;;4.63;;
24030;SDS011;12240;51.142;22.486;2023-07-13T12:47:56;7.40;;;4.72;;
24030;SDS011;12240;51.142;22.486;2023-07-13T12:50:37;7.72;;;3.97;;
24030;SDS011;12240;51.142;22.486;2023-07-13T12:53:14;9.13;;;4.90;;
24030;SDS011;12240;51.142;22.486;2023-07-13T12:55:47;8.45;;;4.72;;
24030;SDS011;12240;51.142;22.486;2023-07-13T12:58:27;9.97;;;4.27;;
24030;SDS011;12240;51.142;22.486;2023-07-13T13:01:10;6.47;;;4.35;;
24030;SDS011;12240;51.142;22.486;2023-07-13T13:03:48;6.38;;;4.18;;
24030;SDS011;12240;51.142;22.486;2023-07-13T13:08:57;7.10;;;4.20;;
24030;SDS011;12240;51.142;22.486;2023-07-13T13:11:27;8.90;;;4.45;;
24030;SDS011;12240;51.142;22.486;2023-07-13T13:13:57;6.45;;;4.55;;
24030;SDS011;12240;51.142;22.486;2023-07-13T13:18:55;6.70;;;4.63;;
24030;SDS011;12240;51.142;22.486;2023-07-13T13:21:24;8.68;;;4.50;;
24030;SDS011;12240;51.142;22.486;2023-07-13T13:23:53;6.75;;;4.72;;
24030;SDS011;12240;51.142;22.486;2023-07-13T13:26:22;7.32;;;4.63;;
24030;SDS011;12240;51.142;22.486;2023-07-13T13:28:50;9.60;;;4.82;;
24030;SDS011;12240;51.142;22.486;2023-07-13T13:31:19;7.85;;;4.78;;
24030;SDS011;12240;51.142;22.486;2023-07-13T13:33:48;7.72;;;5.03;;
24030;SDS011;12240;51.142;22.486;2023-07-13T13:36:19;7.53;;;4.28;;
24030;SDS011;12240;51.142;22.486;2023-07-13T13:38:50;6.07;;;4.28;;
24030;SDS011;12240;51.142;22.486;2023-07-13T13:41:18;6.82;;;4.65;;
24030;SDS011;12240;51.142;22.486;2023-07-13T13:43:46;6.47;;;4.80;;
24030;SDS011;12240;51.142;22.486;2023-07-13T13:46:19;6.55;;;4.40;;
24030;SDS011;12240;51.142;22.486;2023-07-13T13:48:52;11.95;;;4.60;;
24030;SDS011;12240;51.142;22.486;2023-07-13T13:51:21;9.27;;;4.50;;
24030;SDS011;12240;51.142;22.486;2023-07-13T13:53:51;6.90;;;4.47;;
24030;SDS011;12240;51.142;22.486;2023-07-13T13:56:20;8.07;;;4.78;;
24030;SDS011;12240;51.142;22.486;2023-07-13T13:58:48;9.13;;;5.05;;
24030;SDS011;12240;51.142;22.486;2023-07-13T14:01:17;10.75;;;5.03;;
24030;SDS011;12240;51.142;22.486;2023-07-13T14:03:49;9.65;;;4.95;;
24030;SDS011;12240;51.142;22.486;2023-07-13T14:06:21;8.57;;;4.93;;
24030;SDS011;12240;51.142;22.486;2023-07-13T14:08:49;9.80;;;5.20;;
24030;SDS011;12240;51.142;22.486;2023-07-13T14:11:18;8.43;;;5.18;;
24030;SDS011;12240;51.142;22.486;2023-07-13T14:13:49;7.10;;;4.78;;
24030;SDS011;12240;51.142;22.486;2023-07-13T14:16:25;7.53;;;4.90;;
24030;SDS011;12240;51.142;22.486;2023-07-13T14:19:00;10.45;;;5.82;;
24030;SDS011;12240;51.142;22.486;2023-07-13T14:21:29;12.00;;;5.88;;
24030;SDS011;12240;51.142;22.486;2023-07-13T14:23:57;10.40;;;5.30;;
24030;SDS011;12240;51.142;22.486;2023-07-13T14:26:25;10.55;;;5.60;;
24030;SDS011;12240;51.142;22.486;2023-07-13T14:28:55;13.63;;;6.47;;
24030;SDS011;12240;51.142;22.486;2023-07-13T14:31:25;14.70;;;6.63;;
24030;SDS011;12240;51.142;22.486;2023-07-13T14:33:58;12.70;;;7.60;;
24030;SDS011;12240;51.142;22.486;2023-07-13T14:36:28;10.20;;;6.40;;
24030;SDS011;12240;51.142;22.486;2023-07-13T14:39:09;14.93;;;6.78;;
24030;SDS011;12240;51.142;22.486;2023-07-13T14:41:44;15.35;;;7.22;;
24030;SDS011;12240;51.142;22.486;2023-07-13T14:44:16;12.02;;;6.50;;
24030;SDS011;12240;51.142;22.486;2023-07-13T14:46:50;10.00;;;7.00;;
24030;SDS011;12240;51.142;22.486;2023-07-13T14:52:01;12.27;;;7.50;;
24030;SDS011;12240;51.142;22.486;2023-07-13T14:54:41;12.80;;;7.43;;
24030;SDS011;12240;51.142;22.486;2023-07-13T14:57:15;13.60;;;7.00;;
24030;SDS011;12240;51.142;22.486;2023-07-13T14:59:48;15.55;;;8.27;;
24030;SDS011;12240;51.142;22.486;2023-07-13T15:02:23;11.38;;;8.02;;
24030;SDS011;12240;51.142;22.486;2023-07-13T15:04:57;17.70;;;8.75;;
24030;SDS011;12240;51.142;22.486;2023-07-13T15:07:26;14.88;;;8.25;;
24030;SDS011;12240;51.142;22.486;2023-07-13T15:09:54;13.80;;;8.70;;
24030;SDS011;12240;51.142;22.486;2023-07-13T15:12:22;16.58;;;9.55;;
24030;SDS011;12240;51.142;22.486;2023-07-13T15:14:50;15.30;;;9.45;;
24030;SDS011;12240;51.142;22.486;2023-07-13T15:17:31;20.63;;;10.63;;
24030;SDS011;12240;51.142;22.486;2023-07-13T15:23:00;13.48;;;9.40;;
24030;SDS011;12240;51.142;22.486;2023-07-13T15:25:30;13.80;;;9.88;;
24030;SDS011;12240;51.142;22.486;2023-07-13T15:28:00;12.18;;;6.43;;
24030;SDS011;12240;51.142;22.486;2023-07-13T15:30:30;7.72;;;4.38;;
24030;SDS011;12240;51.142;22.486;2023-07-13T15:33:11;6.93;;;3.20;;
24030;SDS011;12240;51.142;22.486;2023-07-13T15:35:48;8.57;;;3.50;;
24030;SDS011;12240;51.142;22.486;2023-07-13T15:38:19;4.97;;;3.25;;
24030;SDS011;12240;51.142;22.486;2023-07-13T15:40:50;11.30;;;2.90;;
24030;SDS011;12240;51.142;22.486;2023-07-13T15:43:20;8.40;;;3.05;;
24030;SDS011;12240;51.142;22.486;2023-07-13T15:45:53;4.68;;;2.88;;
24030;SDS011;12240;51.142;22.486;2023-07-13T15:48:22;5.63;;;2.95;;
24030;SDS011;12240;51.142;22.486;2023-07-13T15:50:54;6.43;;;3.05;;
24030;SDS011;12240;51.142;22.486;2023-07-13T15:53:28;5.63;;;2.90;;
24030;SDS011;12240;51.142;22.486;2023-07-13T15:56:10;6.05;;;2.95;;
24030;SDS011;12240;51.142;22.486;2023-07-13T15:58:48;5.97;;;3.10;;
24030;SDS011;12240;51.142;22.486;2023-07-13T16:01:17;5.20;;;2.72;;
24030;SDS011;12240;51.142;22.486;2023-07-13T16:06:19;4.43;;;3.10;;
24030;SDS011;12240;51.142;22.486;2023-07-13T16:08:54;5.32;;;3.00;;
24030;SDS011;12240;51.142;22.486;2023-07-13T16:11:23;5.10;;;2.80;;
24030;SDS011;12240;51.142;22.486;2023-07-13T16:14:01;7.25;;;3.05;;